LIEE/CAG METAR and TAF weather

Enter ICAO airport designator
Station Type Date Time Source
LIEE METAR 2022/07/03 14:50 UTC NOAA

LIEE 031450Z 12007KT CAVOK 30/18 Q1017


Station Type Date Time Source
LIEE Decoded METAR 2022/07/03 14:50 UTC NOAA

Cagliari / Elmas, Italy (LIEE) 39-15N 009-04E 5M
Jul 03, 2022 - 10:50 AM EDT / 2022.07.03 1450 UTC
Wind: from the ESE (120 degrees) at 8 MPH (7 KT):0
Visibility: greater than 7 mile(s):0
Temperature: 86 F (30 C)
Dew Point: 64 F (18 C)
Relative Humidity: 48%
Pressure (altimeter): 30.03 in. Hg (1017 hPa)
ob: LIEE 031450Z 12007KT CAVOK 30/18 Q1017
cycle: 15

Station Type Date Time Source
LIEE TAF 2022/07/03 12:22 UTC NOAA

TAF LIEE 031100Z 0312/0412 17012KT 9999 SCT060
BECMG 0318/0320 VRB05KT
BECMG 0409/0411 17012KT

Example: see airport list